sensor_id;sensor_type;location;lat;lon;timestamp;P1;durP1;ratioP1;P2;durP2;ratioP2
35689;SDS011;26977;44.830;-0.674;2022-10-31T00:02:10;31.13;;;16.83;;
35689;SDS011;26977;44.830;-0.674;2022-10-31T00:04:36;29.77;;;16.38;;
35689;SDS011;26977;44.830;-0.674;2022-10-31T00:07:02;32.10;;;15.55;;
35689;SDS011;26977;44.830;-0.674;2022-10-31T00:09:27;30.02;;;15.73;;
35689;SDS011;26977;44.830;-0.674;2022-10-31T00:11:53;31.35;;;16.20;;
35689;SDS011;26977;44.830;-0.674;2022-10-31T00:14:19;35.92;;;16.20;;
35689;SDS011;26977;44.830;-0.674;2022-10-31T00:16:44;24.50;;;15.27;;
35689;SDS011;26977;44.830;-0.674;2022-10-31T00:19:10;33.28;;;16.65;;
35689;SDS011;26977;44.830;-0.674;2022-10-31T00:21:35;25.73;;;15.75;;
35689;SDS011;26977;44.830;-0.674;2022-10-31T00:24:01;30.15;;;17.50;;
35689;SDS011;26977;44.830;-0.674;2022-10-31T00:26:28;29.08;;;17.10;;
35689;SDS011;26977;44.830;-0.674;2022-10-31T00:28:56;29.67;;;17.27;;
35689;SDS011;26977;44.830;-0.674;2022-10-31T00:31:22;32.13;;;17.13;;
35689;SDS011;26977;44.830;-0.674;2022-10-31T00:33:48;29.67;;;16.15;;
35689;SDS011;26977;44.830;-0.674;2022-10-31T00:36:14;31.95;;;17.27;;
35689;SDS011;26977;44.830;-0.674;2022-10-31T00:38:42;30.45;;;16.60;;
35689;SDS011;26977;44.830;-0.674;2022-10-31T00:41:09;34.47;;;18.63;;
35689;SDS011;26977;44.830;-0.674;2022-10-31T00:43:35;31.80;;;17.20;;
35689;SDS011;26977;44.830;-0.674;2022-10-31T00:46:01;33.35;;;19.05;;
35689;SDS011;26977;44.830;-0.674;2022-10-31T00:48:27;29.55;;;17.20;;
35689;SDS011;26977;44.830;-0.674;2022-10-31T00:50:53;27.20;;;16.52;;
35689;SDS011;26977;44.830;-0.674;2022-10-31T00:53:19;34.67;;;17.95;;
35689;SDS011;26977;44.830;-0.674;2022-10-31T00:55:45;29.13;;;18.02;;
35689;SDS011;26977;44.830;-0.674;2022-10-31T00:58:10;40.88;;;18.70;;
35689;SDS011;26977;44.830;-0.674;2022-10-31T01:00:36;31.27;;;17.42;;
35689;SDS011;26977;44.830;-0.674;2022-10-31T01:03:02;39.83;;;18.33;;
35689;SDS011;26977;44.830;-0.674;2022-10-31T01:05:27;32.97;;;17.30;;
35689;SDS011;26977;44.830;-0.674;2022-10-31T01:07:54;29.55;;;16.45;;
35689;SDS011;26977;44.830;-0.674;2022-10-31T01:10:19;25.42;;;15.45;;
35689;SDS011;26977;44.830;-0.674;2022-10-31T01:12:46;29.90;;;16.02;;
35689;SDS011;26977;44.830;-0.674;2022-10-31T01:15:13;28.40;;;17.20;;
35689;SDS011;26977;44.830;-0.674;2022-10-31T01:17:40;25.15;;;16.58;;
35689;SDS011;26977;44.830;-0.674;2022-10-31T01:20:06;31.33;;;18.17;;
35689;SDS011;26977;44.830;-0.674;2022-10-31T01:22:33;35.65;;;20.23;;
35689;SDS011;26977;44.830;-0.674;2022-10-31T01:24:59;46.78;;;20.58;;
35689;SDS011;26977;44.830;-0.674;2022-10-31T01:27:25;69.13;;;24.05;;
35689;SDS011;26977;44.830;-0.674;2022-10-31T01:29:50;40.53;;;22.52;;
35689;SDS011;26977;44.830;-0.674;2022-10-31T01:32:16;38.35;;;20.45;;
35689;SDS011;26977;44.830;-0.674;2022-10-31T01:34:42;43.55;;;21.70;;
35689;SDS011;26977;44.830;-0.674;2022-10-31T01:37:07;39.42;;;21.25;;
35689;SDS011;26977;44.830;-0.674;2022-10-31T01:39:33;39.65;;;21.25;;
35689;SDS011;26977;44.830;-0.674;2022-10-31T01:41:59;44.55;;;23.00;;
35689;SDS011;26977;44.830;-0.674;2022-10-31T01:47:02;41.80;;;22.95;;
35689;SDS011;26977;44.830;-0.674;2022-10-31T01:49:53;49.30;;;24.73;;
35689;SDS011;26977;44.830;-0.674;2022-10-31T01:57:49;48.17;;;23.63;;
35689;SDS011;26977;44.830;-0.674;2022-10-31T02:00:17;55.42;;;24.70;;
35689;SDS011;26977;44.830;-0.674;2022-10-31T02:02:45;47.90;;;24.88;;
35689;SDS011;26977;44.830;-0.674;2022-10-31T02:05:19;54.80;;;26.70;;
35689;SDS011;26977;44.830;-0.674;2022-10-31T02:07:55;57.20;;;27.10;;
35689;SDS011;26977;44.830;-0.674;2022-10-31T02:10:25;58.65;;;27.15;;
35689;SDS011;26977;44.830;-0.674;2022-10-31T02:12:52;61.15;;;28.15;;
35689;SDS011;26977;44.830;-0.674;2022-10-31T02:15:21;56.53;;;27.38;;
35689;SDS011;26977;44.830;-0.674;2022-10-31T02:17:47;64.30;;;28.95;;
35689;SDS011;26977;44.830;-0.674;2022-10-31T02:20:18;65.43;;;28.60;;
35689;SDS011;26977;44.830;-0.674;2022-10-31T02:25:58;69.85;;;29.77;;
35689;SDS011;26977;44.830;-0.674;2022-10-31T02:34:07;65.95;;;29.70;;
35689;SDS011;26977;44.830;-0.674;2022-10-31T02:42:19;60.58;;;30.02;;
35689;SDS011;26977;44.830;-0.674;2022-10-31T02:47:36;62.13;;;30.23;;
35689;SDS011;26977;44.830;-0.674;2022-10-31T02:50:08;66.78;;;30.77;;
35689;SDS011;26977;44.830;-0.674;2022-10-31T02:52:39;69.55;;;31.60;;
35689;SDS011;26977;44.830;-0.674;2022-10-31T02:57:53;60.17;;;30.05;;
35689;SDS011;26977;44.830;-0.674;2022-10-31T03:00:25;60.47;;;31.80;;
35689;SDS011;26977;44.830;-0.674;2022-10-31T03:16:14;87.25;;;36.10;;
35689;SDS011;26977;44.830;-0.674;2022-10-31T03:18:44;83.03;;;36.78;;
35689;SDS011;26977;44.830;-0.674;2022-10-31T03:21:20;89.30;;;36.75;;
35689;SDS011;26977;44.830;-0.674;2022-10-31T03:23:59;86.97;;;36.45;;
35689;SDS011;26977;44.830;-0.674;2022-10-31T03:26:26;89.22;;;38.25;;
35689;SDS011;26977;44.830;-0.674;2022-10-31T03:28:57;89.78;;;38.20;;
35689;SDS011;26977;44.830;-0.674;2022-10-31T03:31:29;86.25;;;39.05;;
35689;SDS011;26977;44.830;-0.674;2022-10-31T03:34:17;84.07;;;41.40;;
35689;SDS011;26977;44.830;-0.674;2022-10-31T03:36:44;102.47;;;42.35;;
35689;SDS011;26977;44.830;-0.674;2022-10-31T03:39:17;87.27;;;38.80;;
35689;SDS011;26977;44.830;-0.674;2022-10-31T03:41:46;96.28;;;43.00;;
35689;SDS011;26977;44.830;-0.674;2022-10-31T03:44:34;103.38;;;41.88;;
35689;SDS011;26977;44.830;-0.674;2022-10-31T03:47:03;105.60;;;41.38;;
35689;SDS011;26977;44.830;-0.674;2022-10-31T03:49:29;113.28;;;42.95;;
35689;SDS011;26977;44.830;-0.674;2022-10-31T03:52:02;121.75;;;45.22;;
35689;SDS011;26977;44.830;-0.674;2022-10-31T03:54:53;113.28;;;44.10;;
35689;SDS011;26977;44.830;-0.674;2022-10-31T04:00:20;112.75;;;43.13;;
35689;SDS011;26977;44.830;-0.674;2022-10-31T04:02:51;98.20;;;44.75;;
35689;SDS011;26977;44.830;-0.674;2022-10-31T04:05:25;114.10;;;46.47;;
35689;SDS011;26977;44.830;-0.674;2022-10-31T04:07:52;127.13;;;47.88;;
35689;SDS011;26977;44.830;-0.674;2022-10-31T04:10:21;128.02;;;46.60;;
35689;SDS011;26977;44.830;-0.674;2022-10-31T04:12:50;116.57;;;47.13;;
35689;SDS011;26977;44.830;-0.674;2022-10-31T04:15:22;126.60;;;48.08;;
35689;SDS011;26977;44.830;-0.674;2022-10-31T04:17:50;145.32;;;51.50;;
35689;SDS011;26977;44.830;-0.674;2022-10-31T04:20:28;117.38;;;48.80;;
35689;SDS011;26977;44.830;-0.674;2022-10-31T04:23:04;125.43;;;49.58;;
35689;SDS011;26977;44.830;-0.674;2022-10-31T04:25:35;116.03;;;49.42;;
35689;SDS011;26977;44.830;-0.674;2022-10-31T04:28:01;137.10;;;53.72;;
35689;SDS011;26977;44.830;-0.674;2022-10-31T04:30:27;124.25;;;49.17;;
35689;SDS011;26977;44.830;-0.674;2022-10-31T04:32:52;133.07;;;51.55;;
35689;SDS011;26977;44.830;-0.674;2022-10-31T04:35:18;126.72;;;52.58;;
35689;SDS011;26977;44.830;-0.674;2022-10-31T04:37:43;132.50;;;52.35;;
35689;SDS011;26977;44.830;-0.674;2022-10-31T04:40:09;136.23;;;53.28;;
35689;SDS011;26977;44.830;-0.674;2022-10-31T04:42:35;126.22;;;52.30;;
35689;SDS011;26977;44.830;-0.674;2022-10-31T04:45:01;124.10;;;50.55;;
35689;SDS011;26977;44.830;-0.674;2022-10-31T04:47:27;129.30;;;51.88;;
35689;SDS011;26977;44.830;-0.674;2022-10-31T04:49:55;127.22;;;51.33;;
35689;SDS011;26977;44.830;-0.674;2022-10-31T04:52:20;116.85;;;51.03;;
35689;SDS011;26977;44.830;-0.674;2022-10-31T04:54:46;103.18;;;49.45;;
35689;SDS011;26977;44.830;-0.674;2022-10-31T04:57:12;126.93;;;50.50;;
35689;SDS011;26977;44.830;-0.674;2022-10-31T04:59:37;112.82;;;46.55;;
35689;SDS011;26977;44.830;-0.674;2022-10-31T05:02:03;107.00;;;46.60;;
35689;SDS011;26977;44.830;-0.674;2022-10-31T05:04:28;104.07;;;45.25;;
35689;SDS011;26977;44.830;-0.674;2022-10-31T05:06:54;110.50;;;45.03;;
35689;SDS011;26977;44.830;-0.674;2022-10-31T05:09:20;89.90;;;42.78;;
35689;SDS011;26977;44.830;-0.674;2022-10-31T05:11:45;100.60;;;40.47;;
35689;SDS011;26977;44.830;-0.674;2022-10-31T05:14:11;98.82;;;40.30;;
35689;SDS011;26977;44.830;-0.674;2022-10-31T05:16:37;114.72;;;41.30;;
35689;SDS011;26977;44.830;-0.674;2022-10-31T05:19:02;100.70;;;40.33;;
35689;SDS011;26977;44.830;-0.674;2022-10-31T05:21:28;82.88;;;38.67;;
35689;SDS011;26977;44.830;-0.674;2022-10-31T05:23:53;89.35;;;37.72;;
35689;SDS011;26977;44.830;-0.674;2022-10-31T05:26:19;80.07;;;38.05;;
35689;SDS011;26977;44.830;-0.674;2022-10-31T05:28:45;95.90;;;38.28;;
35689;SDS011;26977;44.830;-0.674;2022-10-31T05:31:10;86.18;;;36.42;;
35689;SDS011;26977;44.830;-0.674;2022-10-31T05:33:36;83.05;;;35.97;;
35689;SDS011;26977;44.830;-0.674;2022-10-31T05:36:02;77.35;;;35.05;;
35689;SDS011;26977;44.830;-0.674;2022-10-31T05:38:28;86.18;;;37.00;;
35689;SDS011;26977;44.830;-0.674;2022-10-31T05:40:56;82.75;;;35.10;;
35689;SDS011;26977;44.830;-0.674;2022-10-31T05:43:26;79.20;;;35.35;;
35689;SDS011;26977;44.830;-0.674;2022-10-31T05:45:55;77.88;;;35.45;;
35689;SDS011;26977;44.830;-0.674;2022-10-31T05:48:21;74.13;;;34.90;;
35689;SDS011;26977;44.830;-0.674;2022-10-31T05:50:47;91.65;;;36.30;;
35689;SDS011;26977;44.830;-0.674;2022-10-31T05:53:14;82.78;;;35.53;;
35689;SDS011;26977;44.830;-0.674;2022-10-31T05:55:40;82.65;;;35.63;;
35689;SDS011;26977;44.830;-0.674;2022-10-31T05:58:08;70.85;;;32.92;;
35689;SDS011;26977;44.830;-0.674;2022-10-31T06:00:33;75.45;;;33.88;;
35689;SDS011;26977;44.830;-0.674;2022-10-31T06:03:04;74.63;;;34.35;;
35689;SDS011;26977;44.830;-0.674;2022-10-31T06:05:31;85.35;;;34.25;;
35689;SDS011;26977;44.830;-0.674;2022-10-31T06:07:57;83.75;;;34.03;;
35689;SDS011;26977;44.830;-0.674;2022-10-31T06:10:23;75.80;;;34.05;;
35689;SDS011;26977;44.830;-0.674;2022-10-31T06:12:49;75.20;;;32.75;;
35689;SDS011;26977;44.830;-0.674;2022-10-31T06:15:15;65.72;;;32.72;;
35689;SDS011;26977;44.830;-0.674;2022-10-31T06:17:41;74.30;;;33.63;;
35689;SDS011;26977;44.830;-0.674;2022-10-31T06:20:07;71.40;;;34.95;;
35689;SDS011;26977;44.830;-0.674;2022-10-31T06:22:33;75.63;;;34.17;;
35689;SDS011;26977;44.830;-0.674;2022-10-31T06:24:59;80.30;;;34.70;;
35689;SDS011;26977;44.830;-0.674;2022-10-31T06:27:25;72.97;;;34.88;;
35689;SDS011;26977;44.830;-0.674;2022-10-31T06:29:51;85.20;;;34.63;;
35689;SDS011;26977;44.830;-0.674;2022-10-31T06:32:16;78.35;;;34.25;;
35689;SDS011;26977;44.830;-0.674;2022-10-31T06:34:43;80.03;;;33.72;;
35689;SDS011;26977;44.830;-0.674;2022-10-31T06:37:09;79.00;;;33.15;;
35689;SDS011;26977;44.830;-0.674;2022-10-31T06:39:36;72.88;;;34.15;;
35689;SDS011;26977;44.830;-0.674;2022-10-31T06:42:02;78.78;;;34.67;;
35689;SDS011;26977;44.830;-0.674;2022-10-31T06:44:28;77.30;;;35.13;;
35689;SDS011;26977;44.830;-0.674;2022-10-31T06:46:54;77.40;;;35.00;;
35689;SDS011;26977;44.830;-0.674;2022-10-31T06:49:20;78.72;;;33.70;;
35689;SDS011;26977;44.830;-0.674;2022-10-31T06:51:49;69.43;;;32.67;;
35689;SDS011;26977;44.830;-0.674;2022-10-31T06:54:15;79.10;;;36.05;;
35689;SDS011;26977;44.830;-0.674;2022-10-31T06:56:41;89.78;;;34.40;;
35689;SDS011;26977;44.830;-0.674;2022-10-31T06:59:10;87.25;;;34.60;;
35689;SDS011;26977;44.830;-0.674;2022-10-31T07:01:35;78.72;;;34.33;;
35689;SDS011;26977;44.830;-0.674;2022-10-31T07:04:01;75.63;;;34.15;;
35689;SDS011;26977;44.830;-0.674;2022-10-31T07:06:27;73.90;;;34.03;;
35689;SDS011;26977;44.830;-0.674;2022-10-31T07:08:52;68.55;;;32.83;;
35689;SDS011;26977;44.830;-0.674;2022-10-31T07:11:18;78.30;;;34.03;;
35689;SDS011;26977;44.830;-0.674;2022-10-31T07:13:43;78.72;;;34.72;;
35689;SDS011;26977;44.830;-0.674;2022-10-31T07:16:09;85.70;;;34.72;;
35689;SDS011;26977;44.830;-0.674;2022-10-31T07:18:37;78.15;;;34.60;;
35689;SDS011;26977;44.830;-0.674;2022-10-31T07:21:03;74.57;;;33.05;;
35689;SDS011;26977;44.830;-0.674;2022-10-31T07:23:29;84.97;;;35.67;;
35689;SDS011;26977;44.830;-0.674;2022-10-31T07:25:55;72.60;;;35.15;;
35689;SDS011;26977;44.830;-0.674;2022-10-31T07:28:22;79.80;;;35.65;;
35689;SDS011;26977;44.830;-0.674;2022-10-31T07:30:52;79.72;;;35.67;;
35689;SDS011;26977;44.830;-0.674;2022-10-31T07:33:19;87.57;;;38.08;;
35689;SDS011;26977;44.830;-0.674;2022-10-31T07:35:45;80.82;;;35.50;;
35689;SDS011;26977;44.830;-0.674;2022-10-31T07:38:11;84.68;;;36.47;;
35689;SDS011;26977;44.830;-0.674;2022-10-31T07:40:38;76.22;;;36.28;;
35689;SDS011;26977;44.830;-0.674;2022-10-31T07:43:05;82.63;;;37.30;;
35689;SDS011;26977;44.830;-0.674;2022-10-31T07:45:30;74.75;;;35.15;;
35689;SDS011;26977;44.830;-0.674;2022-10-31T07:47:56;89.90;;;37.05;;
35689;SDS011;26977;44.830;-0.674;2022-10-31T07:50:23;77.55;;;36.53;;
35689;SDS011;26977;44.830;-0.674;2022-10-31T07:55:29;84.40;;;37.25;;
35689;SDS011;26977;44.830;-0.674;2022-10-31T07:57:56;72.00;;;36.13;;
35689;SDS011;26977;44.830;-0.674;2022-10-31T08:00:26;82.55;;;37.17;;
35689;SDS011;26977;44.830;-0.674;2022-10-31T08:02:59;80.32;;;35.10;;
35689;SDS011;26977;44.830;-0.674;2022-10-31T08:05:26;73.43;;;34.72;;
35689;SDS011;26977;44.830;-0.674;2022-10-31T08:07:52;72.55;;;34.15;;
35689;SDS011;26977;44.830;-0.674;2022-10-31T08:10:17;66.70;;;35.08;;
35689;SDS011;26977;44.830;-0.674;2022-10-31T08:12:43;76.10;;;35.15;;
35689;SDS011;26977;44.830;-0.674;2022-10-31T08:15:09;73.05;;;36.17;;
35689;SDS011;26977;44.830;-0.674;2022-10-31T08:17:35;82.05;;;36.45;;
35689;SDS011;26977;44.830;-0.674;2022-10-31T08:20:02;71.38;;;33.83;;
35689;SDS011;26977;44.830;-0.674;2022-10-31T08:22:32;71.25;;;32.58;;
35689;SDS011;26977;44.830;-0.674;2022-10-31T08:24:58;62.10;;;32.75;;
35689;SDS011;26977;44.830;-0.674;2022-10-31T08:27:23;57.30;;;31.88;;
35689;SDS011;26977;44.830;-0.674;2022-10-31T08:29:49;73.60;;;33.15;;
35689;SDS011;26977;44.830;-0.674;2022-10-31T08:32:15;61.85;;;31.73;;
35689;SDS011;26977;44.830;-0.674;2022-10-31T08:34:40;61.50;;;32.05;;
35689;SDS011;26977;44.830;-0.674;2022-10-31T08:37:06;59.97;;;31.27;;
35689;SDS011;26977;44.830;-0.674;2022-10-31T08:39:31;57.53;;;31.17;;
35689;SDS011;26977;44.830;-0.674;2022-10-31T08:41:57;61.10;;;29.52;;
35689;SDS011;26977;44.830;-0.674;2022-10-31T08:44:23;66.70;;;29.50;;
35689;SDS011;26977;44.830;-0.674;2022-10-31T08:46:48;48.08;;;25.88;;
35689;SDS011;26977;44.830;-0.674;2022-10-31T08:49:14;48.20;;;25.38;;
35689;SDS011;26977;44.830;-0.674;2022-10-31T08:51:40;38.95;;;23.70;;
35689;SDS011;26977;44.830;-0.674;2022-10-31T08:54:05;44.88;;;23.90;;
35689;SDS011;26977;44.830;-0.674;2022-10-31T08:56:31;42.38;;;24.00;;
35689;SDS011;26977;44.830;-0.674;2022-10-31T08:58:57;35.22;;;21.95;;
35689;SDS011;26977;44.830;-0.674;2022-10-31T09:01:22;56.08;;;23.50;;
35689;SDS011;26977;44.830;-0.674;2022-10-31T09:03:48;39.60;;;22.27;;
35689;SDS011;26977;44.830;-0.674;2022-10-31T09:06:14;36.30;;;19.65;;
35689;SDS011;26977;44.830;-0.674;2022-10-31T09:08:39;38.30;;;20.10;;
35689;SDS011;26977;44.830;-0.674;2022-10-31T09:11:05;33.97;;;18.83;;
35689;SDS011;26977;44.830;-0.674;2022-10-31T09:13:31;40.53;;;19.67;;
35689;SDS011;26977;44.830;-0.674;2022-10-31T09:15:57;34.30;;;18.25;;
35689;SDS011;26977;44.830;-0.674;2022-10-31T09:18:23;31.15;;;16.50;;
35689;SDS011;26977;44.830;-0.674;2022-10-31T09:20:49;33.17;;;17.00;;
35689;SDS011;26977;44.830;-0.674;2022-10-31T09:23:20;33.97;;;16.27;;
35689;SDS011;26977;44.830;-0.674;2022-10-31T09:25:47;34.05;;;15.43;;
35689;SDS011;26977;44.830;-0.674;2022-10-31T09:28:14;27.20;;;15.45;;
35689;SDS011;26977;44.830;-0.674;2022-10-31T09:30:42;32.30;;;15.10;;
35689;SDS011;26977;44.830;-0.674;2022-10-31T09:33:12;32.58;;;14.75;;
35689;SDS011;26977;44.830;-0.674;2022-10-31T09:35:39;25.75;;;12.48;;
35689;SDS011;26977;44.830;-0.674;2022-10-31T09:38:06;28.23;;;13.88;;
35689;SDS011;26977;44.830;-0.674;2022-10-31T09:46:07;23.85;;;11.18;;
35689;SDS011;26977;44.830;-0.674;2022-10-31T09:51:43;21.08;;;12.27;;
35689;SDS011;26977;44.830;-0.674;2022-10-31T09:55:13;24.92;;;11.73;;
35689;SDS011;26977;44.830;-0.674;2022-10-31T09:57:14;25.63;;;10.40;;
35689;SDS011;26977;44.830;-0.674;2022-10-31T09:59:50;24.38;;;10.77;;
35689;SDS011;26977;44.830;-0.674;2022-10-31T10:05:03;20.85;;;9.77;;
35689;SDS011;26977;44.830;-0.674;2022-10-31T10:07:46;21.02;;;9.82;;
35689;SDS011;26977;44.830;-0.674;2022-10-31T10:13:44;20.35;;;9.13;;
35689;SDS011;26977;44.830;-0.674;2022-10-31T10:16:23;20.45;;;9.20;;
35689;SDS011;26977;44.830;-0.674;2022-10-31T10:19:15;19.90;;;8.82;;
35689;SDS011;26977;44.830;-0.674;2022-10-31T10:22:12;23.92;;;9.55;;
35689;SDS011;26977;44.830;-0.674;2022-10-31T10:28:08;22.40;;;8.70;;
35689;SDS011;26977;44.830;-0.674;2022-10-31T10:30:36;24.23;;;8.93;;
35689;SDS011;26977;44.830;-0.674;2022-10-31T10:33:08;22.15;;;8.20;;
35689;SDS011;26977;44.830;-0.674;2022-10-31T10:36:03;24.70;;;8.45;;
35689;SDS011;26977;44.830;-0.674;2022-10-31T10:41:22;20.45;;;8.27;;
35689;SDS011;26977;44.830;-0.674;2022-10-31T10:43:49;18.85;;;7.95;;
35689;SDS011;26977;44.830;-0.674;2022-10-31T10:54:42;22.73;;;8.60;;
35689;SDS011;26977;44.830;-0.674;2022-10-31T10:58:11;20.45;;;8.20;;
35689;SDS011;26977;44.830;-0.674;2022-10-31T11:00:22;24.17;;;9.05;;
35689;SDS011;26977;44.830;-0.674;2022-10-31T11:02:54;18.38;;;8.38;;
35689;SDS011;26977;44.830;-0.674;2022-10-31T11:05:26;24.50;;;8.13;;
35689;SDS011;26977;44.830;-0.674;2022-10-31T11:07:53;20.70;;;8.07;;
35689;SDS011;26977;44.830;-0.674;2022-10-31T11:10:19;22.27;;;8.20;;
35689;SDS011;26977;44.830;-0.674;2022-10-31T11:12:57;15.30;;;7.50;;
35689;SDS011;26977;44.830;-0.674;2022-10-31T11:15:24;21.92;;;7.53;;
35689;SDS011;26977;44.830;-0.674;2022-10-31T11:17:52;21.70;;;8.48;;
35689;SDS011;26977;44.830;-0.674;2022-10-31T11:22:55;21.38;;;8.55;;
35689;SDS011;26977;44.830;-0.674;2022-10-31T11:25:30;22.05;;;7.43;;
35689;SDS011;26977;44.830;-0.674;2022-10-31T11:28:00;26.55;;;7.78;;
35689;SDS011;26977;44.830;-0.674;2022-10-31T11:30:27;23.85;;;8.48;;
35689;SDS011;26977;44.830;-0.674;2022-10-31T11:32:53;25.73;;;8.45;;
35689;SDS011;26977;44.830;-0.674;2022-10-31T11:35:20;23.85;;;8.18;;
35689;SDS011;26977;44.830;-0.674;2022-10-31T11:37:48;16.83;;;7.80;;
35689;SDS011;26977;44.830;-0.674;2022-10-31T11:40:26;17.90;;;7.80;;
35689;SDS011;26977;44.830;-0.674;2022-10-31T11:43:15;17.27;;;7.55;;
35689;SDS011;26977;44.830;-0.674;2022-10-31T11:45:43;19.73;;;8.02;;
35689;SDS011;26977;44.830;-0.674;2022-10-31T11:48:16;20.77;;;8.32;;
35689;SDS011;26977;44.830;-0.674;2022-10-31T11:50:47;19.80;;;8.40;;
35689;SDS011;26977;44.830;-0.674;2022-10-31T11:53:30;15.48;;;7.80;;
35689;SDS011;26977;44.830;-0.674;2022-10-31T11:58:37;19.20;;;8.25;;
35689;SDS011;26977;44.830;-0.674;2022-10-31T12:01:03;21.55;;;8.80;;
35689;SDS011;26977;44.830;-0.674;2022-10-31T12:06:21;20.60;;;8.73;;
35689;SDS011;26977;44.830;-0.674;2022-10-31T12:08:51;22.90;;;7.53;;
35689;SDS011;26977;44.830;-0.674;2022-10-31T12:58:35;20.85;;;7.85;;
35689;SDS011;26977;44.830;-0.674;2022-10-31T13:03:47;20.70;;;6.75;;
35689;SDS011;26977;44.830;-0.674;2022-10-31T13:06:22;18.75;;;6.90;;
35689;SDS011;26977;44.830;-0.674;2022-10-31T13:08:57;16.48;;;6.55;;
35689;SDS011;26977;44.830;-0.674;2022-10-31T13:14:05;19.65;;;8.55;;
35689;SDS011;26977;44.830;-0.674;2022-10-31T13:16:37;19.38;;;7.53;;
35689;SDS011;26977;44.830;-0.674;2022-10-31T13:19:14;20.08;;;8.10;;
35689;SDS011;26977;44.830;-0.674;2022-10-31T13:24:16;18.52;;;7.20;;
35689;SDS011;26977;44.830;-0.674;2022-10-31T13:26:52;19.98;;;6.65;;
35689;SDS011;26977;44.830;-0.674;2022-10-31T13:32:16;18.63;;;7.00;;
35689;SDS011;26977;44.830;-0.674;2022-10-31T13:34:46;17.35;;;6.97;;
35689;SDS011;26977;44.830;-0.674;2022-10-31T13:37:23;15.45;;;6.65;;
35689;SDS011;26977;44.830;-0.674;2022-10-31T13:45:24;15.35;;;6.90;;
35689;SDS011;26977;44.830;-0.674;2022-10-31T13:50:23;15.73;;;6.90;;
35689;SDS011;26977;44.830;-0.674;2022-10-31T13:56:30;14.30;;;6.78;;
35689;SDS011;26977;44.830;-0.674;2022-10-31T13:58:59;17.83;;;7.40;;
35689;SDS011;26977;44.830;-0.674;2022-10-31T14:01:26;14.95;;;8.07;;
35689;SDS011;26977;44.830;-0.674;2022-10-31T14:03:56;14.90;;;7.30;;
35689;SDS011;26977;44.830;-0.674;2022-10-31T14:06:22;16.88;;;6.97;;
35689;SDS011;26977;44.830;-0.674;2022-10-31T14:08:59;15.95;;;6.93;;
35689;SDS011;26977;44.830;-0.674;2022-10-31T14:11:25;15.32;;;7.60;;
35689;SDS011;26977;44.830;-0.674;2022-10-31T14:13:53;14.52;;;7.10;;
35689;SDS011;26977;44.830;-0.674;2022-10-31T14:16:25;12.38;;;7.03;;
35689;SDS011;26977;44.830;-0.674;2022-10-31T14:19:06;16.42;;;7.35;;
35689;SDS011;26977;44.830;-0.674;2022-10-31T14:21:43;15.25;;;7.20;;
35689;SDS011;26977;44.830;-0.674;2022-10-31T14:24:31;16.88;;;7.50;;
35689;SDS011;26977;44.830;-0.674;2022-10-31T14:27:00;19.02;;;6.95;;
35689;SDS011;26977;44.830;-0.674;2022-10-31T14:29:29;12.93;;;7.15;;
35689;SDS011;26977;44.830;-0.674;2022-10-31T14:32:06;15.82;;;6.47;;
35689;SDS011;26977;44.830;-0.674;2022-10-31T14:50:48;18.88;;;6.82;;
35689;SDS011;26977;44.830;-0.674;2022-10-31T14:53:23;14.55;;;6.57;;
35689;SDS011;26977;44.830;-0.674;2022-10-31T14:55:53;14.65;;;6.28;;
35689;SDS011;26977;44.830;-0.674;2022-10-31T14:58:25;15.48;;;5.85;;
35689;SDS011;26977;44.830;-0.674;2022-10-31T15:00:58;12.70;;;6.60;;
35689;SDS011;26977;44.830;-0.674;2022-10-31T15:03:29;17.20;;;6.40;;
35689;SDS011;26977;44.830;-0.674;2022-10-31T15:06:03;18.80;;;6.25;;
35689;SDS011;26977;44.830;-0.674;2022-10-31T15:13:56;13.10;;;5.50;;
35689;SDS011;26977;44.830;-0.674;2022-10-31T15:18:56;10.73;;;5.40;;
35689;SDS011;26977;44.830;-0.674;2022-10-31T15:21:28;11.60;;;5.60;;
35689;SDS011;26977;44.830;-0.674;2022-10-31T15:23:54;13.93;;;5.65;;
35689;SDS011;26977;44.830;-0.674;2022-10-31T15:26:29;10.48;;;5.13;;
35689;SDS011;26977;44.830;-0.674;2022-10-31T15:29:04;15.73;;;6.00;;
35689;SDS011;26977;44.830;-0.674;2022-10-31T15:31:35;15.07;;;6.43;;
35689;SDS011;26977;44.830;-0.674;2022-10-31T15:34:03;15.77;;;7.07;;
35689;SDS011;26977;44.830;-0.674;2022-10-31T15:36:40;19.05;;;5.47;;
35689;SDS011;26977;44.830;-0.674;2022-10-31T15:39:09;13.57;;;5.15;;
35689;SDS011;26977;44.830;-0.674;2022-10-31T15:41:44;12.98;;;4.90;;
35689;SDS011;26977;44.830;-0.674;2022-10-31T15:44:16;15.88;;;5.90;;
35689;SDS011;26977;44.830;-0.674;2022-10-31T15:46:57;12.18;;;5.07;;
35689;SDS011;26977;44.830;-0.674;2022-10-31T15:49:35;18.10;;;6.10;;
35689;SDS011;26977;44.830;-0.674;2022-10-31T15:57:42;23.70;;;5.97;;
35689;SDS011;26977;44.830;-0.674;2022-10-31T16:10:56;15.27;;;5.72;;
35689;SDS011;26977;44.830;-0.674;2022-10-31T16:13:35;17.13;;;5.70;;
35689;SDS011;26977;44.830;-0.674;2022-10-31T16:16:13;11.90;;;5.00;;
35689;SDS011;26977;44.830;-0.674;2022-10-31T16:18:40;16.70;;;5.63;;
35689;SDS011;26977;44.830;-0.674;2022-10-31T16:21:06;12.98;;;5.00;;
35689;SDS011;26977;44.830;-0.674;2022-10-31T16:23:34;10.50;;;4.88;;
35689;SDS011;26977;44.830;-0.674;2022-10-31T16:26:06;12.88;;;5.18;;
35689;SDS011;26977;44.830;-0.674;2022-10-31T16:28:33;16.08;;;5.00;;
35689;SDS011;26977;44.830;-0.674;2022-10-31T16:31:00;13.45;;;5.55;;
35689;SDS011;26977;44.830;-0.674;2022-10-31T16:33:30;11.55;;;4.90;;
35689;SDS011;26977;44.830;-0.674;2022-10-31T16:38:56;18.88;;;4.82;;
35689;SDS011;26977;44.830;-0.674;2022-10-31T16:41:22;9.73;;;4.55;;
35689;SDS011;26977;44.830;-0.674;2022-10-31T16:43:49;14.60;;;4.38;;
35689;SDS011;26977;44.830;-0.674;2022-10-31T16:46:16;13.40;;;4.70;;
35689;SDS011;26977;44.830;-0.674;2022-10-31T16:48:47;11.82;;;4.50;;
35689;SDS011;26977;44.830;-0.674;2022-10-31T16:51:12;14.20;;;4.65;;
35689;SDS011;26977;44.830;-0.674;2022-10-31T16:53:38;13.88;;;5.00;;
35689;SDS011;26977;44.830;-0.674;2022-10-31T16:56:04;14.98;;;4.43;;
35689;SDS011;26977;44.830;-0.674;2022-10-31T16:58:33;11.27;;;4.97;;
35689;SDS011;26977;44.830;-0.674;2022-10-31T17:01:04;9.95;;;4.63;;
35689;SDS011;26977;44.830;-0.674;2022-10-31T17:03:31;12.10;;;4.63;;
35689;SDS011;26977;44.830;-0.674;2022-10-31T17:05:57;13.40;;;4.82;;
35689;SDS011;26977;44.830;-0.674;2022-10-31T17:08:23;11.07;;;4.18;;
35689;SDS011;26977;44.830;-0.674;2022-10-31T17:10:53;11.75;;;4.43;;
35689;SDS011;26977;44.830;-0.674;2022-10-31T17:13:21;12.57;;;4.57;;
35689;SDS011;26977;44.830;-0.674;2022-10-31T17:15:51;11.30;;;4.35;;
35689;SDS011;26977;44.830;-0.674;2022-10-31T17:18:18;12.57;;;4.50;;
35689;SDS011;26977;44.830;-0.674;2022-10-31T17:20:45;13.82;;;5.22;;
35689;SDS011;26977;44.830;-0.674;2022-10-31T17:23:12;16.40;;;4.50;;
35689;SDS011;26977;44.830;-0.674;2022-10-31T17:25:39;11.98;;;5.28;;
35689;SDS011;26977;44.830;-0.674;2022-10-31T17:28:05;15.75;;;4.88;;
35689;SDS011;26977;44.830;-0.674;2022-10-31T17:30:35;22.20;;;4.40;;
35689;SDS011;26977;44.830;-0.674;2022-10-31T17:33:02;13.32;;;5.05;;
35689;SDS011;26977;44.830;-0.674;2022-10-31T17:35:28;10.25;;;4.50;;
35689;SDS011;26977;44.830;-0.674;2022-10-31T17:37:54;16.95;;;5.15;;
35689;SDS011;26977;44.830;-0.674;2022-10-31T17:40:20;11.02;;;4.88;;